Time;durP1;ratioP1;P1;durP2;ratioP2;P2;SDS_P1;SDS_P2;PMS_P1;PMS_P2;Temp;Humidity;BMP_temperature;BMP_pressure;BME280_temperature;BME280_humidity;BME280_pressure;Samples;Min_cycle;Max_cycle;Signal;HPM_P1;HPM_P2
2021/11/14 00:00:57;;;;;;;39.20;22.33;;;21.70;54.30;;;;;;5052059;28;20859;-77
2021/11/14 00:03:31;;;;;;;40.43;23.87;;;21.70;54.30;;;;;;5034744;28;20485;-77
2021/11/14 00:05:57;;;;;;;37.70;24.00;;;21.70;54.40;;;;;;5035162;28;20406;-77
2021/11/14 00:08:31;;;;;;;32.33;21.63;;;21.70;54.40;;;;;;5052423;28;20410;-77
2021/11/14 00:11:01;;;;;;;37.10;23.40;;;21.70;54.40;;;;;;5052870;28;20167;-77
2021/11/14 00:13:32;;;;;;;35.80;21.37;;;21.70;54.40;;;;;;5034672;28;20430;-77
2021/11/14 00:16:07;;;;;;;35.37;22.80;;;21.70;54.50;;;;;;5034922;28;20430;-77
2021/11/14 00:18:36;;;;;;;35.17;20.83;;;21.70;54.50;;;;;;5034779;28;20410;-77
2021/11/14 00:21:05;;;;;;;35.70;21.97;;;21.70;54.50;;;;;;5052613;28;20410;-77
2021/11/14 00:23:33;;;;;;;33.70;21.07;;;21.70;54.50;;;;;;5034614;28;20462;-77
2021/11/14 00:26:06;;;;;;;36.73;22.40;;;21.70;54.50;;;;;;5052745;28;20403;-77
2021/11/14 00:28:32;;;;;;;36.17;21.47;;;21.60;54.40;;;;;;5027222;28;20461;-78
2021/11/14 00:30:58;;;;;;;44.53;22.00;;;21.70;54.50;;;;;;5050204;28;20423;-77
2021/11/14 00:33:25;;;;;;;34.67;23.30;;;21.60;54.40;;;;;;5031224;28;20470;-77
2021/11/14 00:35:53;;;;;;;30.93;20.93;;;21.70;54.50;;;;;;5038617;28;20415;-77
2021/11/14 00:38:20;;;;;;;29.30;21.20;;;21.70;54.50;;;;;;5051666;28;20478;-77
2021/11/14 00:40:49;;;;;;;34.93;20.90;;;21.70;54.50;;;;;;5034627;28;20419;-77
2021/11/14 00:43:18;;;;;;;30.80;21.20;;;21.70;54.60;;;;;;5050882;28;20465;-77
2021/11/14 00:45:45;;;;;;;33.83;21.33;;;21.70;54.60;;;;;;5040644;28;20455;-78
2021/11/14 00:48:12;;;;;;;28.73;18.90;;;21.60;54.50;;;;;;5041145;28;20418;-77
2021/11/14 00:50:43;;;;;;;32.60;20.30;;;21.70;54.60;;;;;;5034867;28;20487;-78
2021/11/14 00:53:20;;;;;;;34.87;21.17;;;21.60;54.50;;;;;;5051918;28;20414;-77
2021/11/14 00:55:47;;;;;;;32.37;18.77;;;21.60;54.50;;;;;;5034736;28;20414;-78
2021/11/14 00:58:13;;;;;;;29.57;19.20;;;21.60;54.50;;;;;;5050296;28;20437;-78
2021/11/14 01:00:41;;;;;;;33.80;21.13;;;21.60;54.50;;;;;;5031543;28;20422;-78
2021/11/14 01:03:13;;;;;;;28.90;18.60;;;21.60;54.50;;;;;;5027636;28;20490;-77
2021/11/14 01:05:42;;;;;;;27.43;19.23;;;21.60;54.50;;;;;;5036886;28;20395;-78
2021/11/14 01:08:13;;;;;;;24.33;18.43;;;21.60;54.50;;;;;;5034091;28;20422;-78
2021/11/14 01:10:45;;;;;;;28.60;19.50;;;21.60;54.50;;;;;;5051121;28;20483;-78
2021/11/14 01:13:13;;;;;;;32.47;19.57;;;21.60;54.50;;;;;;5034548;28;20508;-77
2021/11/14 01:15:41;;;;;;;30.93;20.80;;;21.60;54.50;;;;;;5051589;28;20434;-78
2021/11/14 01:18:08;;;;;;;31.90;20.97;;;21.60;54.50;;;;;;5033344;28;20490;-78
2021/11/14 01:20:41;;;;;;;29.70;19.60;;;21.60;54.60;;;;;;5035272;28;20422;-77
2021/11/14 01:23:26;;;;;;;35.03;19.77;;;21.60;54.60;;;;;;5043041;28;20522;-78
2021/11/14 01:25:53;;;;;;;28.10;18.67;;;21.60;54.60;;;;;;5045179;28;20473;-77
2021/11/14 01:28:22;;;;;;;26.90;17.03;;;21.60;54.60;;;;;;5050562;28;20410;-77
2021/11/14 01:30:54;;;;;;;30.10;18.20;;;21.60;54.60;;;;;;5033622;28;20419;-77
2021/11/14 01:33:22;;;;;;;30.00;18.83;;;21.60;54.60;;;;;;5050843;28;20407;-78
2021/11/14 01:35:53;;;;;;;26.30;18.10;;;21.60;54.60;;;;;;5050199;28;20426;-78
2021/11/14 01:38:33;;;;;;;;;;;;;;;;;;;;;
2021/11/14 01:41:17;;;;;;;25.10;17.23;;;21.60;54.60;;;;;;5052925;28;20457;-77
2021/11/14 01:43:50;;;;;;;26.50;17.33;;;21.60;54.60;;;;;;5053947;28;20469;-77
2021/11/14 01:46:20;;;;;;;29.57;19.23;;;21.60;54.70;;;;;;5054701;28;20399;-77
2021/11/14 01:48:54;;;;;;;25.90;17.10;;;21.60;54.70;;;;;;5037359;28;20500;-77
2021/11/14 01:51:30;;;;;;;24.70;17.03;;;21.60;54.70;;;;;;5036968;28;20433;-78
2021/11/14 01:54:03;;;;;;;26.17;17.07;;;21.60;54.70;;;;;;5037230;28;20422;-78
2021/11/14 01:56:38;;;;;;;23.73;16.30;;;21.60;54.70;;;;;;5036840;28;20418;-78
2021/11/14 01:59:06;;;;;;;24.53;16.17;;;21.60;54.70;;;;;;5054625;28;20429;-77
2021/11/14 02:01:35;;;;;;;25.73;17.23;;;21.60;54.70;;;;;;5034767;28;20411;-78
2021/11/14 02:04:05;;;;;;;25.10;17.17;;;21.60;54.70;;;;;;5034739;28;20465;-77
2021/11/14 02:06:33;;;;;;;23.03;15.60;;;21.60;54.70;;;;;;5034187;28;20484;-78
2021/11/14 02:08:59;;;;;;;22.77;15.80;;;21.50;54.60;;;;;;5034638;28;20398;-78
2021/11/14 02:11:25;;;;;;;25.27;17.97;;;21.50;54.60;;;;;;5054285;28;20417;-78
2021/11/14 02:13:52;;;;;;;24.40;17.10;;;21.50;54.60;;;;;;5055193;28;20417;-77
2021/11/14 02:16:22;;;;;;;24.07;15.67;;;21.50;54.60;;;;;;5037380;28;20489;-78
2021/11/14 02:18:48;;;;;;;22.53;16.00;;;21.50;54.60;;;;;;5037229;28;20445;-78
2021/11/14 02:21:15;;;;;;;23.57;15.37;;;21.50;54.60;;;;;;5036682;28;20426;-78
2021/11/14 02:23:41;;;;;;;25.90;17.40;;;21.50;54.60;;;;;;5054851;28;20195;-77
2021/11/14 02:26:07;;;;;;;26.40;17.37;;;21.50;54.60;;;;;;5036440;28;21051;-78
2021/11/14 02:28:34;;;;;;;23.80;15.57;;;21.50;54.60;;;;;;5035537;28;20489;-78
2021/11/14 02:30:59;;;;;;;22.40;16.17;;;21.50;54.60;;;;;;5036834;28;20175;-78
2021/11/14 02:33:27;;;;;;;25.20;16.17;;;21.50;54.60;;;;;;5053619;28;20502;-78
2021/11/14 02:35:58;;;;;;;25.23;16.97;;;21.50;54.60;;;;;;5053366;28;20171;-78
2021/11/14 02:38:24;;;;;;;27.93;17.67;;;21.50;54.60;;;;;;5053563;28;20386;-77
2021/11/14 02:40:51;;;;;;;23.83;16.40;;;21.50;54.60;;;;;;5032844;28;20461;-78
2021/11/14 02:43:18;;;;;;;23.20;16.30;;;21.50;54.60;;;;;;5033488;28;20522;-78
2021/11/14 02:45:44;;;;;;;25.07;15.50;;;21.50;54.60;;;;;;5033569;28;20411;-78
2021/11/14 02:48:13;;;;;;;23.87;15.20;;;21.50;54.60;;;;;;5033904;28;20430;-78
2021/11/14 02:50:40;;;;;;;23.30;15.03;;;21.50;54.60;;;;;;5047254;28;20406;-77
2021/11/14 02:53:06;;;;;;;24.70;16.03;;;21.50;54.70;;;;;;5036167;28;20453;-78
2021/11/14 02:55:32;;;;;;;24.03;15.63;;;21.50;54.60;;;;;;5035606;28;20418;-78
2021/11/14 02:57:59;;;;;;;24.40;15.70;;;21.50;54.60;;;;;;5053838;28;20243;-78
2021/11/14 03:00:30;;;;;;;25.63;14.67;;;21.50;54.60;;;;;;5053122;28;20415;-78
2021/11/14 03:02:56;;;;;;;23.60;15.73;;;21.50;54.60;;;;;;5053227;28;20447;-77
2021/11/14 03:05:22;;;;;;;19.23;14.77;;;21.50;54.60;;;;;;5035884;28;20452;-78
2021/11/14 03:07:49;;;;;;;19.47;13.80;;;21.50;54.60;;;;;;5053652;28;20183;-77
2021/11/14 03:10:20;;;;;;;21.77;14.47;;;21.50;54.60;;;;;;5053321;28;20422;-77
2021/11/14 03:13:05;;;;;;;20.17;14.13;;;21.50;54.60;;;;;;5053236;28;20445;-77
2021/11/14 03:15:34;;;;;;;24.23;15.50;;;21.50;54.60;;;;;;5031890;28;20444;-77
2021/11/14 03:18:00;;;;;;;19.63;13.20;;;21.50;54.70;;;;;;5051325;28;20461;-77
2021/11/14 03:20:26;;;;;;;19.70;15.47;;;21.50;54.70;;;;;;5036157;28;20446;-77
2021/11/14 03:22:52;;;;;;;20.07;14.20;;;21.50;54.70;;;;;;5050050;28;20200;-77
2021/11/14 03:25:25;;;;;;;22.90;14.97;;;21.50;54.70;;;;;;5023514;28;20420;-77
2021/11/14 03:27:52;;;;;;;21.10;13.90;;;21.50;54.70;;;;;;5035800;28;20407;-77
2021/11/14 03:30:20;;;;;;;22.53;14.40;;;21.50;54.70;;;;;;5052056;28;20395;-77
2021/11/14 03:32:46;;;;;;;20.70;13.30;;;21.50;54.70;;;;;;5053657;28;20414;-77
2021/11/14 03:35:12;;;;;;;22.03;14.63;;;21.50;54.70;;;;;;5053211;28;20445;-76
2021/11/14 03:37:38;;;;;;;19.03;13.50;;;21.50;54.70;;;;;;5034282;28;20418;-76
2021/11/14 03:40:07;;;;;;;18.17;12.80;;;21.50;54.70;;;;;;5053802;28;20453;-77
2021/11/14 03:42:33;;;;;;;21.73;13.60;;;21.50;54.70;;;;;;5051909;28;20423;-77
2021/11/14 03:44:59;;;;;;;18.30;13.67;;;21.50;54.70;;;;;;5051044;28;20402;-76
2021/11/14 03:47:25;;;;;;;20.40;12.93;;;21.40;54.60;;;;;;5019902;28;20435;-77
2021/11/14 03:49:51;;;;;;;20.53;14.03;;;21.50;54.70;;;;;;5015413;28;20186;-77
2021/11/14 03:52:17;;;;;;;19.47;14.23;;;21.50;54.70;;;;;;5015606;28;20454;-76
2021/11/14 03:54:43;;;;;;;20.30;13.73;;;21.50;54.70;;;;;;5050069;28;20176;-76
2021/11/14 03:57:09;;;;;;;19.17;13.40;;;21.50;54.70;;;;;;5033696;28;20433;-77
2021/11/14 03:59:34;;;;;;;22.23;14.07;;;21.50;54.70;;;;;;5035819;28;20415;-77
2021/11/14 04:02:01;;;;;;;20.00;13.30;;;21.50;54.60;;;;;;5036177;28;20610;-76
2021/11/14 04:04:27;;;;;;;19.80;13.13;;;21.50;54.60;;;;;;5029752;28;20215;-76
2021/11/14 04:06:53;;;;;;;17.27;13.70;;;21.50;54.70;;;;;;5024776;28;20502;-77
2021/11/14 04:09:19;;;;;;;19.60;13.30;;;21.50;54.70;;;;;;5052105;28;20429;-77
2021/11/14 04:11:45;;;;;;;21.83;12.07;;;21.50;54.70;;;;;;5051652;28;20231;-77
2021/11/14 04:14:11;;;;;;;16.27;12.47;;;21.50;54.70;;;;;;5051264;28;20421;-77
2021/11/14 04:16:37;;;;;;;17.67;12.30;;;21.50;54.70;;;;;;5034574;28;20201;-77
2021/11/14 04:19:04;;;;;;;15.83;11.90;;;21.50;54.70;;;;;;5051937;28;20418;-77
2021/11/14 04:21:29;;;;;;;22.23;13.27;;;21.50;54.70;;;;;;5034955;28;20418;-77
2021/11/14 04:23:55;;;;;;;21.07;12.83;;;21.50;54.70;;;;;;5035710;28;20485;-77
2021/11/14 04:26:21;;;;;;;17.57;12.27;;;21.50;54.70;;;;;;5053432;28;20630;-77
2021/11/14 04:28:48;;;;;;;20.33;14.10;;;21.50;54.70;;;;;;5034466;28;20250;-78
2021/11/14 04:31:14;;;;;;;16.87;11.83;;;21.50;54.70;;;;;;5034741;28;20175;-77
2021/11/14 04:33:40;;;;;;;19.20;12.83;;;21.50;54.70;;;;;;5053210;28;20401;-78
2021/11/14 04:36:05;;;;;;;15.53;11.73;;;21.50;54.70;;;;;;5050849;28;20237;-77
2021/11/14 04:38:32;;;;;;;19.47;13.13;;;21.50;54.70;;;;;;5034500;28;20441;-77
2021/11/14 04:40:58;;;;;;;18.53;12.50;;;21.40;54.60;;;;;;5052834;28;20234;-77
2021/11/14 04:43:24;;;;;;;17.13;11.97;;;21.50;54.70;;;;;;5051092;28;20454;-76
2021/11/14 04:45:51;;;;;;;20.67;11.90;;;21.40;54.60;;;;;;5033453;28;20410;-77
2021/11/14 04:48:17;;;;;;;17.80;11.67;;;21.40;54.60;;;;;;5033388;28;20417;-77
2021/11/14 04:50:44;;;;;;;14.80;11.60;;;21.40;54.60;;;;;;5050958;28;20417;-78
2021/11/14 04:53:10;;;;;;;16.70;12.00;;;21.40;54.60;;;;;;5034575;28;20410;-78
2021/11/14 04:55:38;;;;;;;17.43;11.93;;;21.40;54.60;;;;;;5051074;28;20418;-78
2021/11/14 04:58:04;;;;;;;18.83;13.33;;;21.40;54.70;;;;;;5051569;28;20426;-78
2021/11/14 05:00:41;;;;;;;17.60;13.13;;;21.40;54.60;;;;;;5051081;28;20457;-77
2021/11/14 05:03:08;;;;;;;16.23;12.13;;;21.40;54.60;;;;;;5034043;28;20450;-78
2021/11/14 05:05:46;;;;;;;15.60;11.70;;;21.40;54.70;;;;;;5033226;28;20469;-77
2021/11/14 05:08:14;;;;;;;16.13;11.50;;;21.40;54.70;;;;;;5051171;28;20417;-78
2021/11/14 05:10:46;;;;;;;14.97;11.37;;;21.40;54.70;;;;;;5032994;28;20415;-77
2021/11/14 05:13:14;;;;;;;15.87;11.27;;;21.40;54.70;;;;;;5033413;28;20433;-78
2021/11/14 05:15:40;;;;;;;18.03;12.20;;;21.40;54.70;;;;;;5054094;28;20423;-77
2021/11/14 05:18:06;;;;;;;13.30;11.00;;;21.40;54.70;;;;;;5055408;28;20489;-78
2021/11/14 05:20:44;;;;;;;18.27;12.63;;;21.40;54.70;;;;;;5055146;28;20418;-78
2021/11/14 05:23:13;;;;;;;16.73;11.90;;;21.40;54.70;;;;;;5038121;28;20200;-78
2021/11/14 05:25:42;;;;;;;14.80;11.83;;;21.40;54.70;;;;;;5039096;28;20924;-78
2021/11/14 05:28:11;;;;;;;15.90;11.40;;;21.40;54.70;;;;;;5037882;28;20424;-78
2021/11/14 05:30:42;;;;;;;14.47;10.43;;;21.40;54.70;;;;;;5037582;28;20475;-78
2021/11/14 05:33:10;;;;;;;17.40;10.33;;;21.40;54.70;;;;;;5039204;28;20421;-77
2021/11/14 05:35:36;;;;;;;16.40;12.10;;;21.40;54.70;;;;;;5037147;28;20437;-78
2021/11/14 05:38:03;;;;;;;17.63;11.50;;;21.40;54.70;;;;;;5054607;28;20425;-78
2021/11/14 05:40:28;;;;;;;15.23;10.20;;;21.40;54.70;;;;;;5038889;28;20477;-78
2021/11/14 05:43:00;;;;;;;16.13;10.90;;;21.40;54.70;;;;;;5036637;28;20473;-77
2021/11/14 05:45:29;;;;;;;13.73;10.80;;;21.40;54.70;;;;;;5054224;28;20203;-78
2021/11/14 05:47:57;;;;;;;15.63;10.87;;;21.40;54.70;;;;;;5054056;28;20469;-78
2021/11/14 05:50:24;;;;;;;13.50;10.67;;;21.40;54.70;;;;;;5036797;28;20489;-77
2021/11/14 05:52:52;;;;;;;13.63;10.70;;;21.40;54.70;;;;;;5036184;28;20426;-78
2021/11/14 05:55:18;;;;;;;16.33;11.27;;;21.40;54.70;;;;;;5036434;28;20438;-77
2021/11/14 05:57:53;;;;;;;12.10;9.23;;;21.40;54.70;;;;;;5052884;28;20457;-77
2021/11/14 06:01:06;;;;;;;14.87;10.80;;;21.40;54.70;;;;;;5043987;28;20442;-78
2021/11/14 06:06:01;;;;;;;16.80;11.27;;;21.40;54.70;;;;;;5054349;28;20401;-78
2021/11/14 06:08:32;;;;;;;13.13;10.23;;;21.40;54.70;;;;;;5054252;28;20418;-78
2021/11/14 06:10:58;;;;;;;12.83;9.80;;;21.40;54.70;;;;;;5054279;28;20414;-78
2021/11/14 06:13:29;;;;;;;14.47;10.50;;;21.50;54.80;;;;;;5033408;28;20458;-78
2021/11/14 06:15:57;;;;;;;13.70;11.20;;;21.50;54.70;;;;;;5053030;28;20418;-77
2021/11/14 06:18:24;;;;;;;15.07;9.53;;;21.50;54.70;;;;;;5053984;28;20421;-78
2021/11/14 06:20:53;;;;;;;14.77;10.30;;;21.50;54.70;;;;;;5046219;28;20428;-78
2021/11/14 06:23:27;;;;;;;13.87;9.53;;;21.50;54.70;;;;;;5053654;28;20462;-78
2021/11/14 06:25:56;;;;;;;13.20;9.63;;;21.50;54.60;;;;;;5049609;28;20402;-76
2021/11/14 06:28:24;;;;;;;13.77;9.90;;;21.50;54.60;;;;;;5044381;28;20420;-75
2021/11/14 06:30:54;;;;;;;13.90;10.27;;;21.50;54.60;;;;;;5039648;28;20414;-75
2021/11/14 06:33:20;;;;;;;13.83;10.57;;;21.50;54.60;;;;;;5050337;28;20414;-75
2021/11/14 06:35:48;;;;;;;15.07;10.20;;;21.50;54.60;;;;;;5032378;28;20422;-75
2021/11/14 06:38:16;;;;;;;14.37;10.57;;;21.50;54.60;;;;;;5045960;28;20176;-75
2021/11/14 06:40:44;;;;;;;12.13;8.60;;;21.60;54.60;;;;;;5030000;28;20466;-75
2021/11/14 06:43:10;;;;;;;14.43;9.60;;;21.60;54.60;;;;;;5039055;28;20450;-76
2021/11/14 06:45:36;;;;;;;16.87;10.60;;;21.60;54.60;;;;;;5050707;28;20444;-75
2021/11/14 06:48:02;;;;;;;12.63;9.70;;;21.60;54.60;;;;;;5034160;28;20177;-75
2021/11/14 06:50:28;;;;;;;12.23;8.97;;;21.60;54.60;;;;;;5036863;28;20172;-75
2021/11/14 06:52:54;;;;;;;14.23;10.27;;;21.60;54.60;;;;;;5023985;28;20457;-75
2021/11/14 06:55:20;;;;;;;12.53;9.07;;;21.60;54.60;;;;;;5030007;28;20203;-76
2021/11/14 06:57:47;;;;;;;11.63;8.90;;;21.60;54.60;;;;;;5015402;28;20200;-75
2021/11/14 07:00:23;;;;;;;12.20;9.20;;;21.60;54.60;;;;;;5016216;28;20483;-75
2021/11/14 07:02:49;;;;;;;11.53;8.70;;;21.60;54.60;;;;;;5050541;28;20452;-75
2021/11/14 07:05:17;;;;;;;14.73;9.63;;;21.60;54.60;;;;;;5053012;28;20414;-75
2021/11/14 07:07:49;;;;;;;13.43;9.80;;;21.60;54.60;;;;;;5035523;28;20172;-75
2021/11/14 07:10:16;;;;;;;15.50;10.17;;;21.60;54.60;;;;;;5052592;28;20496;-76
2021/11/14 07:12:43;;;;;;;14.67;9.63;;;21.50;54.50;;;;;;5035761;28;20411;-76
2021/11/14 07:15:13;;;;;;;13.17;10.57;;;21.60;54.60;;;;;;5052710;28;20429;-76
2021/11/14 07:17:40;;;;;;;11.70;8.53;;;21.60;54.60;;;;;;5051323;28;20457;-75
2021/11/14 07:20:08;;;;;;;11.47;8.83;;;21.60;54.60;;;;;;5048911;28;20433;-75
2021/11/14 07:22:34;;;;;;;12.43;9.17;;;21.60;54.60;;;;;;5032409;28;20415;-75
2021/11/14 07:25:03;;;;;;;13.90;10.33;;;21.60;54.60;;;;;;5048856;28;20438;-76
2021/11/14 07:27:28;;;;;;;12.30;8.80;;;21.60;54.60;;;;;;5048696;28;20414;-75
2021/11/14 07:29:54;;;;;;;10.97;8.40;;;21.60;54.60;;;;;;5031228;28;20422;-75
2021/11/14 07:32:22;;;;;;;14.37;9.93;;;21.60;54.60;;;;;;5048861;28;20183;-75
2021/11/14 07:34:48;;;;;;;10.97;8.43;;;21.60;54.60;;;;;;5049087;28;20180;-78
2021/11/14 07:37:14;;;;;;;11.93;8.30;;;21.60;54.60;;;;;;5027527;28;20447;-76
2021/11/14 07:39:40;;;;;;;10.10;8.00;;;21.60;54.60;;;;;;5028752;28;20176;-75
2021/11/14 07:42:06;;;;;;;13.27;9.00;;;21.60;54.60;;;;;;5030515;28;20203;-76
2021/11/14 07:44:31;;;;;;;11.50;8.73;;;21.60;54.60;;;;;;5026510;28;20474;-75
2021/11/14 07:46:57;;;;;;;14.33;8.57;;;21.60;54.60;;;;;;5047978;28;20418;-75
2021/11/14 07:49:23;;;;;;;9.40;7.30;;;21.60;54.60;;;;;;5030183;28;20180;-76
2021/11/14 07:51:48;;;;;;;10.97;9.20;;;21.60;54.50;;;;;;5047629;28;20201;-75
2021/11/14 07:54:14;;;;;;;8.63;6.87;;;21.60;54.50;;;;;;5030452;28;20187;-75
2021/11/14 07:56:40;;;;;;;13.27;9.03;;;21.60;54.50;;;;;;5049248;28;20179;-77
2021/11/14 07:59:06;;;;;;;10.40;7.73;;;21.60;54.50;;;;;;5050553;28;20195;-75
2021/11/14 08:01:32;;;;;;;11.37;8.20;;;21.60;54.50;;;;;;5046911;28;20172;-75
2021/11/14 08:03:57;;;;;;;11.50;9.07;;;21.60;54.50;;;;;;5032182;28;20199;-75
2021/11/14 08:09:45;;;;;;;10.77;7.53;;;21.60;54.50;;;;;;5049585;28;20183;-80
2021/11/14 08:12:11;;;;;;;9.00;7.17;;;21.60;54.50;;;;;;5030958;28;20427;-75
2021/11/14 08:14:37;;;;;;;10.80;8.00;;;21.60;54.50;;;;;;5048607;28;20194;-76
2021/11/14 08:20:16;;;;;;;9.60;8.00;;;21.70;54.50;;;;;;5031778;28;20198;-75
2021/11/14 08:22:42;;;;;;;11.00;8.10;;;21.60;54.50;;;;;;5030208;28;20466;-75
2021/11/14 08:25:09;;;;;;;11.53;8.40;;;21.60;54.50;;;;;;5028015;28;20494;-75
2021/11/14 08:27:36;;;;;;;13.20;8.67;;;21.60;54.40;;;;;;5043688;28;20660;-75
2021/11/14 08:30:04;;;;;;;10.63;7.60;;;21.60;54.40;;;;;;5047909;28;20482;-74
2021/11/14 08:32:33;;;;;;;8.50;7.13;;;21.60;54.40;;;;;;5048632;28;20441;-77
2021/11/14 08:34:59;;;;;;;9.50;7.13;;;21.60;54.40;;;;;;5048371;28;20779;-75
2021/11/14 08:37:25;;;;;;;10.37;7.37;;;21.70;54.60;;;;;;5030204;28;20423;-74
2021/11/14 08:39:51;;;;;;;9.40;6.53;;;21.60;54.50;;;;;;5031045;28;20179;-76
2021/11/14 08:42:16;;;;;;;8.87;6.70;;;21.60;54.40;;;;;;5032043;28;20190;-78
2021/11/14 08:44:43;;;;;;;10.73;7.07;;;21.70;54.50;;;;;;5028911;28;20218;-77
2021/11/14 08:47:09;;;;;;;9.00;6.67;;;21.70;54.50;;;;;;5050341;28;20778;-79
2021/11/14 08:49:35;;;;;;;9.87;7.40;;;21.70;54.50;;;;;;5053123;28;20458;-78
2021/11/14 08:52:01;;;;;;;12.00;8.17;;;21.70;54.50;;;;;;5040940;28;20418;-78
2021/11/14 08:54:27;;;;;;;9.73;6.90;;;21.70;54.50;;;;;;5055899;28;20414;-78
2021/11/14 08:56:53;;;;;;;8.80;7.37;;;21.70;54.50;;;;;;5054764;28;20430;-77
2021/11/14 08:59:19;;;;;;;9.17;7.40;;;21.70;54.50;;;;;;5038992;28;20188;-77
2021/11/14 09:01:45;;;;;;;9.60;7.50;;;21.70;54.50;;;;;;5040074;28;20237;-77
2021/11/14 09:04:11;;;;;;;8.40;6.80;;;21.70;54.50;;;;;;5035120;28;20458;-77
2021/11/14 09:06:38;;;;;;;8.07;6.40;;;21.70;54.50;;;;;;5049562;28;20410;-78
2021/11/14 09:09:09;;;;;;;9.90;7.10;;;21.70;54.40;;;;;;5048340;28;20173;-78
2021/11/14 09:11:37;;;;;;;11.17;7.23;;;21.70;54.40;;;;;;5032833;28;20414;-78
2021/11/14 09:14:03;;;;;;;9.00;7.10;;;21.70;54.40;;;;;;5032605;28;20442;-78
2021/11/14 09:16:29;;;;;;;8.70;7.03;;;21.70;54.40;;;;;;5037019;28;20441;-78
2021/11/14 09:18:58;;;;;;;8.70;6.90;;;21.70;54.40;;;;;;5057367;28;20426;-78
2021/11/14 09:21:24;;;;;;;8.77;7.33;;;21.70;54.40;;;;;;5051544;28;20931;-78
2021/11/14 09:23:50;;;;;;;10.57;6.93;;;21.70;54.40;;;;;;5036859;28;20510;-78
2021/11/14 09:26:16;;;;;;;9.50;6.90;;;21.70;54.40;;;;;;5018804;28;20172;-78
2021/11/14 09:28:43;;;;;;;10.63;7.67;;;21.70;54.40;;;;;;5036618;28;20439;-78
2021/11/14 09:31:10;;;;;;;9.43;7.00;;;21.70;54.40;;;;;;5018433;28;20429;-78
2021/11/14 09:33:36;;;;;;;9.20;6.90;;;21.80;54.40;;;;;;5036852;28;20430;-78
2021/11/14 09:36:03;;;;;;;8.90;7.10;;;21.80;54.40;;;;;;5018740;28;20441;-78
2021/11/14 09:38:29;;;;;;;8.53;6.60;;;21.70;54.40;;;;;;5018896;28;20458;-78
2021/11/14 09:40:57;;;;;;;7.90;6.23;;;21.80;54.40;;;;;;5018385;28;20415;-78
2021/11/14 09:43:23;;;;;;;9.23;7.00;;;21.80;54.40;;;;;;5019122;28;20220;-78
2021/11/14 09:45:52;;;;;;;8.57;6.07;;;21.80;54.40;;;;;;5036954;28;20513;-78
2021/11/14 09:48:20;;;;;;;6.37;5.60;;;21.70;54.40;;;;;;5056741;28;20418;-78
2021/11/14 09:50:46;;;;;;;8.23;6.57;;;21.80;54.40;;;;;;5054497;28;20418;-78
2021/11/14 09:53:12;;;;;;;8.40;6.60;;;21.80;54.50;;;;;;5041603;28;20425;-78
2021/11/14 09:55:38;;;;;;;7.60;6.30;;;21.80;54.40;;;;;;5036185;28;20418;-78
2021/11/14 09:58:06;;;;;;;7.83;6.10;;;21.80;54.40;;;;;;5039854;28;20524;-78
2021/11/14 10:00:32;;;;;;;9.70;6.63;;;21.80;54.40;;;;;;5054815;28;20176;-79
2021/11/14 10:02:58;;;;;;;9.40;6.37;;;21.80;54.40;;;;;;5034777;28;20464;-78
2021/11/14 10:05:24;;;;;;;8.43;6.63;;;21.80;54.40;;;;;;5035139;28;20422;-79
2021/11/14 10:08:05;;;;;;;7.53;6.13;;;21.80;54.40;;;;;;5035633;28;20607;-78
2021/11/14 10:10:34;;;;;;;8.93;6.47;;;21.80;54.40;;;;;;5035384;28;20188;-78
2021/11/14 10:13:16;;;;;;;7.93;6.17;;;21.80;54.40;;;;;;5052730;28;20419;-78
2021/11/14 10:15:43;;;;;;;7.57;6.00;;;21.80;54.40;;;;;;5035004;28;20407;-78
2021/11/14 10:18:12;;;;;;;8.73;7.27;;;21.80;54.40;;;;;;5052633;28;20410;-78
2021/11/14 10:20:38;;;;;;;6.17;5.03;;;21.80;54.40;;;;;;5034324;28;20414;-78
2021/11/14 10:23:16;;;;;;;8.00;5.33;;;21.80;54.50;;;;;;5052256;28;20453;-78
2021/11/14 10:25:43;;;;;;;7.67;5.13;;;21.80;54.40;;;;;;5035448;28;20422;-78
2021/11/14 10:28:09;;;;;;;8.07;5.30;;;21.80;54.40;;;;;;5051986;28;20414;-78
2021/11/14 10:30:44;;;;;;;7.27;5.50;;;21.80;54.40;;;;;;5052024;28;20413;-78
2021/11/14 10:33:13;;;;;;;7.40;5.83;;;21.80;54.40;;;;;;5035390;28;20179;-78
2021/11/14 10:35:41;;;;;;;7.30;5.47;;;21.80;54.40;;;;;;5035384;28;20423;-78
2021/11/14 10:38:10;;;;;;;7.47;5.90;;;21.80;54.40;;;;;;5035486;28;20430;-79
2021/11/14 10:40:41;;;;;;;6.93;5.67;;;21.80;54.40;;;;;;5052853;28;20425;-78
2021/11/14 10:43:07;;;;;;;7.20;5.80;;;21.80;54.40;;;;;;5052500;28;20467;-78
2021/11/14 10:45:39;;;;;;;7.60;6.07;;;21.80;54.40;;;;;;5035194;28;20410;-77
2021/11/14 10:48:12;;;;;;;6.67;5.57;;;21.80;54.40;;;;;;5033512;28;20482;-78
2021/11/14 10:50:45;;;;;;;6.87;5.10;;;21.80;54.40;;;;;;5035135;28;20897;-77
2021/11/14 10:53:21;;;;;;;8.73;6.10;;;21.80;54.40;;;;;;5034683;28;20904;-77
2021/11/14 10:55:52;;;;;;;7.27;5.40;;;21.80;54.40;;;;;;5036344;28;20422;-77
2021/11/14 10:58:20;;;;;;;7.87;5.63;;;21.80;54.40;;;;;;5034588;28;20442;-78
2021/11/14 11:00:49;;;;;;;7.80;5.60;;;21.80;54.40;;;;;;5034036;28;20513;-78
2021/11/14 11:03:15;;;;;;;8.07;5.77;;;21.80;54.40;;;;;;5052134;28;20454;-78
2021/11/14 11:05:42;;;;;;;6.87;6.10;;;21.80;54.40;;;;;;5052005;28;20478;-78
2021/11/14 11:08:11;;;;;;;7.70;6.27;;;21.80;54.40;;;;;;5035109;28;20423;-78
2021/11/14 11:10:41;;;;;;;6.57;5.37;;;21.80;55.00;;;;;;5052768;28;20414;-78
2021/11/14 11:13:12;;;;;;;8.47;5.60;;;21.80;54.40;;;;;;5052745;28;20406;-78
2021/11/14 11:15:45;;;;;;;7.10;5.40;;;21.80;54.40;;;;;;5018553;28;20437;-78
2021/11/14 11:18:15;;;;;;;7.67;6.60;;;21.80;54.40;;;;;;5051862;28;20430;-78
2021/11/14 11:20:42;;;;;;;8.13;6.93;;;21.80;54.40;;;;;;5031018;28;20431;-78
2021/11/14 11:23:13;;;;;;;6.67;5.33;;;21.80;54.40;;;;;;5023037;28;20480;-78
2021/11/14 11:25:51;;;;;;;7.83;5.60;;;21.80;54.40;;;;;;5034485;28;20494;-78
2021/11/14 11:28:31;;;;;;;6.40;5.20;;;21.80;54.40;;;;;;5034551;28;20790;-78
2021/11/14 11:31:23;;;;;;;9.50;6.07;;;21.80;54.40;;;;;;5034656;28;20410;-78
2021/11/14 11:33:54;;;;;;;7.23;5.23;;;21.80;54.40;;;;;;5047660;28;20468;-78
2021/11/14 11:36:21;;;;;;;5.93;5.20;;;21.80;55.00;;;;;;5035079;28;20507;-77
2021/11/14 11:38:47;;;;;;;6.93;5.77;;;21.80;54.40;;;;;;5034853;28;20425;-78
2021/11/14 11:41:19;;;;;;;6.10;5.50;;;21.80;54.50;;;;;;5052427;28;20415;-78
2021/11/14 11:43:46;;;;;;;6.77;5.00;;;21.80;54.40;;;;;;5034440;28;20465;-78
2021/11/14 11:46:15;;;;;;;6.87;4.70;;;21.80;54.40;;;;;;5035144;28;20490;-78
2021/11/14 11:48:48;;;;;;;6.73;5.30;;;21.80;54.40;;;;;;5034951;28;20419;-78
2021/11/14 11:51:18;;;;;;;8.23;6.77;;;21.80;54.40;;;;;;5034844;28;20417;-78
2021/11/14 11:53:59;;;;;;;7.43;5.30;;;21.80;54.40;;;;;;5035242;28;20529;-78
2021/11/14 11:56:35;;;;;;;6.33;5.60;;;21.80;54.40;;;;;;5034963;28;20486;-78
2021/11/14 11:59:18;;;;;;;6.70;5.70;;;21.80;54.40;;;;;;5034775;28;20932;-78
2021/11/14 12:01:48;;;;;;;6.00;4.57;;;21.80;54.40;;;;;;5052074;28;20418;-77
2021/11/14 12:04:26;;;;;;;6.43;5.73;;;21.80;54.40;;;;;;5035343;28;20454;-78
2021/11/14 12:07:07;;;;;;;7.60;5.93;;;21.80;54.40;;;;;;5034781;28;20402;-78
2021/11/14 12:09:40;;;;;;;6.87;5.23;;;21.80;54.40;;;;;;5052038;28;20414;-78
2021/11/14 12:12:20;;;;;;;6.63;4.93;;;21.80;54.50;;;;;;5034603;28;20511;-78
2021/11/14 12:18:43;;;;;;;9.70;5.53;;;21.80;54.50;;;;;;4990901;28;20509;-77
2021/11/14 12:21:21;;;;;;;7.13;5.30;;;21.80;54.50;;;;;;4974839;28;20421;-78
2021/11/14 12:24:02;;;;;;;5.60;4.93;;;21.80;54.50;;;;;;4991746;28;20445;-78
2021/11/14 12:26:34;;;;;;;5.90;4.33;;;21.80;54.50;;;;;;4975210;28;20817;-77
2021/11/14 12:29:05;;;;;;;7.70;5.07;;;21.80;54.50;;;;;;4991245;28;20449;-77
2021/11/14 12:31:32;;;;;;;7.07;5.00;;;21.80;54.50;;;;;;4975952;28;20437;-78
2021/11/14 12:34:11;;;;;;;6.00;4.83;;;21.80;54.50;;;;;;4992581;28;21017;-78
2021/11/14 12:36:40;;;;;;;7.03;5.57;;;21.80;54.50;;;;;;4975448;28;20465;-77
2021/11/14 12:39:18;;;;;;;6.40;5.03;;;21.80;54.50;;;;;;4976285;28;20425;-78
2021/11/14 12:41:52;;;;;;;5.63;5.00;;;21.80;54.50;;;;;;4976160;28;20413;-77
2021/11/14 12:44:46;;;;;;;5.33;4.07;;;21.90;54.60;;;;;;4991571;28;20493;-77
2021/11/14 12:47:15;;;;;;;5.90;5.13;;;21.80;54.40;;;;;;4990385;28;20425;-77
2021/11/14 12:49:43;;;;;;;5.27;4.70;;;21.80;54.50;;;;;;5033727;28;20415;-78
2021/11/14 12:52:09;;;;;;;6.03;4.40;;;21.80;54.50;;;;;;5035253;28;20437;-78
2021/11/14 12:54:52;;;;;;;5.70;4.03;;;21.80;54.40;;;;;;5052263;28;20799;-78
2021/11/14 12:57:19;;;;;;;5.90;4.20;;;21.90;54.50;;;;;;5052323;28;20932;-77